createdAt,value
2023-04-01T00:01:21.496Z,55.09
2023-04-01T00:03:50.700Z,54.91
2023-04-01T00:06:20.164Z,55.06
2023-04-01T00:08:49.049Z,55.14
2023-04-01T00:11:20.518Z,55.17
2023-04-01T00:13:49.969Z,55.08
2023-04-01T00:16:22.342Z,55.19
2023-04-01T00:18:52.469Z,55.18
2023-04-01T00:21:22.195Z,55.18
2023-04-01T00:23:52.183Z,55.20
2023-04-01T00:26:22.247Z,55.15
2023-04-01T00:28:52.247Z,55.11
2023-04-01T00:31:21.441Z,55.18
2023-04-01T00:33:51.127Z,55.31
2023-04-01T00:36:22.343Z,55.15
2023-04-01T00:38:52.114Z,55.10
2023-04-01T00:41:21.854Z,55.21
2023-04-01T00:43:52.307Z,55.14
2023-04-01T00:46:21.627Z,55.24
2023-04-01T00:48:53.672Z,55.22
2023-04-01T00:51:27.990Z,55.12
2023-04-01T00:54:02.087Z,55.22
2023-04-01T00:56:34.903Z,55.26
2023-04-01T00:59:08.820Z,55.24
2023-04-01T01:01:37.899Z,55.26
2023-04-01T01:04:07.417Z,55.23
2023-04-01T01:06:48.125Z,55.41
2023-04-01T01:09:29.854Z,55.38
2023-04-01T01:12:06.868Z,55.51
2023-04-01T01:14:50.504Z,55.49
2023-04-01T01:17:30.197Z,55.65
2023-04-01T01:20:34.933Z,55.61
2023-04-01T01:23:49.036Z,55.81
2023-04-01T01:26:47.462Z,55.93
2023-04-01T01:29:35.589Z,55.95
2023-04-01T01:32:11.905Z,56.04
2023-04-01T01:34:46.487Z,56.16
2023-04-01T01:37:17.305Z,56.24
2023-04-01T01:39:50.661Z,56.29
2023-04-01T01:42:21.957Z,56.22
2023-04-01T01:44:53.216Z,56.23
2023-04-01T01:47:24.536Z,56.24
2023-04-01T01:49:55.933Z,56.32
2023-04-01T01:52:25.627Z,56.27
2023-04-01T01:54:56.011Z,56.28
2023-04-01T01:57:27.072Z,56.20
2023-04-01T02:00:01.798Z,56.38
2023-04-01T02:02:32.513Z,56.39
2023-04-01T02:05:02.614Z,56.28
2023-04-01T02:07:36.607Z,56.29
2023-04-01T02:10:07.871Z,56.30
2023-04-01T02:12:38.913Z,56.42
2023-04-01T02:15:12.459Z,56.39
2023-04-01T02:17:44.799Z,56.36
2023-04-01T02:20:18.017Z,56.57
2023-04-01T02:22:50.762Z,56.52
2023-04-01T02:25:23.804Z,56.55
2023-04-01T02:27:55.858Z,56.58
2023-04-01T02:30:27.352Z,56.65
2023-04-01T02:32:57.900Z,56.63
2023-04-01T02:35:28.201Z,56.79
2023-04-01T02:37:57.408Z,56.83
2023-04-01T02:40:26.361Z,56.77
2023-04-01T02:42:55.521Z,56.82
2023-04-01T02:45:24.706Z,56.78
2023-04-01T02:47:53.819Z,56.93
2023-04-01T02:50:22.977Z,57.02
2023-04-01T02:52:52.016Z,57.00
2023-04-01T02:55:21.209Z,56.97
2023-04-01T02:57:50.127Z,57.03
2023-04-01T03:00:20.152Z,57.05
2023-04-01T03:02:49.239Z,56.98
2023-04-01T03:05:18.452Z,57.18
2023-04-01T03:07:47.488Z,57.11
2023-04-01T03:10:17.092Z,57.23
2023-04-01T03:12:45.940Z,57.12
2023-04-01T03:15:15.723Z,57.21
2023-04-01T03:17:45.337Z,57.29
2023-04-01T03:20:15.365Z,57.37
2023-04-01T03:22:45.038Z,57.58
2023-04-01T03:25:14.209Z,57.48
2023-04-01T03:27:43.139Z,57.61
2023-04-01T03:30:12.916Z,57.71
2023-04-01T03:32:41.807Z,57.67
2023-04-01T03:35:12.032Z,57.78
2023-04-01T03:37:41.607Z,57.76
2023-04-01T03:40:12.683Z,57.78
2023-04-01T03:42:41.727Z,57.78
2023-04-01T03:45:12.784Z,57.80
2023-04-01T03:47:41.996Z,57.88
2023-04-01T03:50:12.085Z,57.90
2023-04-01T03:52:41.356Z,57.84
2023-04-01T03:55:10.570Z,57.83
2023-04-01T03:57:39.609Z,57.94
2023-04-01T04:00:11.297Z,58.03
2023-04-01T04:02:40.293Z,58.13
2023-04-01T04:05:10.131Z,57.98
2023-04-01T04:07:40.017Z,58.00
2023-04-01T04:10:10.739Z,58.05
2023-04-01T04:12:40.872Z,58.02
2023-04-01T04:15:11.713Z,58.10
2023-04-01T04:17:40.788Z,57.95
2023-04-01T04:20:11.032Z,58.02
2023-04-01T04:22:40.064Z,58.15
2023-04-01T04:25:10.438Z,58.25
2023-04-01T04:27:39.678Z,58.21
2023-04-01T04:30:11.145Z,58.25
2023-04-01T04:32:41.129Z,58.35
2023-04-01T04:35:10.844Z,58.36
2023-04-01T04:37:40.126Z,58.51
2023-04-01T04:40:10.891Z,58.49
2023-04-01T04:42:39.899Z,58.48
2023-04-01T04:45:10.174Z,58.56
2023-04-01T04:47:39.064Z,58.49
2023-04-01T04:50:10.239Z,58.53
2023-04-01T04:52:39.163Z,58.51
2023-04-01T04:55:09.610Z,58.47
2023-04-01T04:57:38.580Z,58.46
2023-04-01T05:00:10.853Z,58.57
2023-04-01T05:02:39.862Z,58.58
2023-04-01T05:05:10.903Z,58.46
2023-04-01T05:07:39.895Z,58.58
2023-04-01T05:10:10.755Z,58.62
2023-04-01T05:12:39.827Z,58.57
2023-04-01T05:15:10.637Z,58.50
2023-04-01T05:17:39.767Z,58.46
2023-04-01T05:20:10.530Z,58.59
2023-04-01T05:22:39.386Z,58.59
2023-04-01T05:25:09.169Z,58.52
2023-04-01T05:27:38.285Z,58.48
2023-04-01T05:30:09.645Z,58.42
2023-04-01T05:32:38.733Z,58.52
2023-04-01T05:35:09.639Z,58.60
2023-04-01T05:37:39.073Z,58.76
2023-04-01T05:40:11.063Z,58.58
2023-04-01T05:42:40.010Z,58.70
2023-04-01T05:45:10.985Z,58.72
2023-04-01T05:47:39.956Z,58.52
2023-04-01T05:50:11.300Z,58.43
2023-04-01T05:52:40.730Z,58.54
2023-04-01T05:55:10.730Z,58.47
2023-04-01T05:57:39.780Z,58.46
2023-04-01T06:00:11.633Z,58.40
2023-04-01T06:02:42.447Z,58.51
2023-04-01T06:05:18.654Z,58.47
2023-04-01T06:07:48.581Z,58.48
2023-04-01T06:10:20.088Z,58.42
2023-04-01T06:13:07.178Z,58.44
2023-04-01T06:15:41.620Z,58.40
2023-04-01T06:18:47.593Z,58.45
2023-04-01T06:21:41.496Z,58.31
2023-04-01T06:24:38.490Z,58.48
2023-04-01T06:27:17.694Z,58.49
2023-04-01T06:29:55.974Z,58.54
2023-04-01T06:32:47.024Z,58.48
2023-04-01T06:35:30.535Z,58.44
2023-04-01T06:38:26.004Z,58.60
2023-04-01T06:41:11.019Z,58.67
2023-04-01T06:43:48.137Z,58.55
2023-04-01T06:46:24.010Z,58.62
2023-04-01T06:49:14.164Z,58.51
2023-04-01T06:51:52.014Z,58.56
2023-04-01T06:54:28.369Z,58.63
2023-04-01T06:57:06.049Z,58.68
2023-04-01T06:59:38.334Z,58.66
2023-04-01T07:02:20.947Z,58.71
2023-04-01T07:04:55.570Z,58.70
2023-04-01T07:07:34.303Z,58.64
2023-04-01T07:10:11.685Z,58.57
2023-04-01T07:12:48.006Z,58.68
2023-04-01T07:15:21.996Z,58.49
2023-04-01T07:17:56.688Z,58.46
2023-04-01T07:20:30.416Z,58.56
2023-04-01T07:23:01.863Z,58.47
2023-04-01T07:25:35.856Z,58.59
2023-04-01T07:28:07.365Z,58.49
2023-04-01T07:30:49.481Z,58.44
2023-04-01T07:33:25.736Z,58.42
2023-04-01T07:36:01.255Z,58.32
2023-04-01T07:38:42.179Z,58.30
2023-04-01T07:41:19.675Z,58.32
2023-04-01T07:44:00.276Z,58.33
2023-04-01T07:46:56.920Z,58.12
2023-04-01T07:49:30.307Z,58.17
2023-04-01T07:52:07.303Z,58.22
2023-04-01T07:54:42.851Z,58.28
2023-04-01T07:57:18.040Z,58.15
2023-04-01T07:59:56.769Z,58.27
2023-04-01T08:02:38.222Z,58.34
2023-04-01T08:05:19.849Z,58.42
2023-04-01T08:07:58.637Z,58.42
2023-04-01T08:10:34.669Z,58.50
2023-04-01T08:13:12.201Z,58.51
2023-04-01T08:15:50.764Z,58.57
2023-04-01T08:18:32.902Z,58.63
2023-04-01T08:21:04.929Z,58.45
2023-04-01T08:23:38.531Z,58.55
2023-04-01T08:26:13.760Z,58.50
2023-04-01T08:28:45.801Z,58.54
2023-04-01T08:31:19.777Z,58.66
2023-04-01T08:33:50.168Z,58.65
2023-04-01T08:36:23.546Z,58.75
2023-04-01T08:38:55.655Z,58.87
2023-04-01T08:41:54.020Z,58.89
2023-04-01T08:45:00.494Z,59.00
2023-04-01T08:47:46.161Z,59.10
2023-04-01T08:50:35.530Z,59.15
2023-04-01T08:53:12.532Z,59.30
2023-04-01T08:55:52.536Z,59.37
2023-04-01T08:58:50.291Z,59.45
2023-04-01T09:01:38.609Z,59.48
2023-04-01T09:04:18.972Z,59.40
2023-04-01T09:06:58.489Z,59.62
2023-04-01T09:09:49.155Z,59.50
2023-04-01T09:13:01.025Z,59.42
2023-04-01T09:15:55.408Z,59.43
2023-04-01T09:18:51.813Z,59.45
2023-04-01T09:21:59.779Z,59.48
2023-04-01T09:24:45.173Z,59.49
2023-04-01T09:27:27.688Z,59.34
2023-04-01T09:30:32.461Z,59.39
2023-04-01T09:34:02.558Z,59.41
2023-04-01T09:36:46.646Z,59.59
2023-04-01T09:39:35.462Z,59.70
2023-04-01T09:42:23.980Z,59.78
2023-04-01T09:45:00.776Z,59.83
2023-04-01T09:47:52.751Z,60.01
2023-04-01T09:50:38.193Z,60.10
2023-04-01T09:53:22.242Z,60.24
2023-04-01T09:56:35.343Z,60.06
2023-04-01T09:59:47.639Z,59.87
2023-04-01T10:02:58.437Z,59.74
2023-04-01T10:06:08.564Z,59.72
2023-04-01T10:09:15.676Z,59.61
2023-04-01T10:12:20.201Z,59.53
2023-04-01T10:15:26.234Z,59.68
2023-04-01T10:18:26.625Z,59.58
2023-04-01T10:21:19.327Z,59.13
2023-04-01T10:24:15.662Z,58.91
2023-04-01T10:27:18.679Z,59.02
2023-04-01T10:30:24.352Z,59.20
2023-04-01T10:33:45.818Z,59.18
2023-04-01T10:36:39.140Z,58.97
2023-04-01T10:39:35.730Z,58.81
2023-04-01T10:42:12.927Z,58.80
2023-04-01T10:45:12.775Z,58.94
2023-04-01T10:48:23.920Z,58.77
2023-04-01T10:51:16.050Z,58.57
2023-04-01T10:54:18.369Z,58.47
2023-04-01T10:56:56.381Z,58.23
2023-04-01T11:00:05.174Z,58.30
2023-04-01T11:03:07.585Z,57.75
2023-04-01T11:06:05.137Z,57.78
2023-04-01T11:09:13.729Z,57.83
2023-04-01T11:12:14.582Z,57.82
2023-04-01T11:15:09.511Z,57.52
2023-04-01T11:18:06.522Z,57.13
2023-04-01T11:21:16.279Z,57.09
2023-04-01T11:24:05.722Z,57.21
2023-04-01T11:26:52.441Z,57.07
2023-04-01T11:30:00.099Z,57.10
2023-04-01T11:32:43.319Z,57.12
2023-04-01T11:35:45.244Z,56.86
2023-04-01T11:38:29.132Z,56.89
2023-04-01T11:41:08.845Z,57.05
2023-04-01T11:43:45.048Z,57.00
2023-04-01T11:46:20.363Z,57.09
2023-04-01T11:49:04.951Z,56.79
2023-04-01T11:51:55.785Z,56.89
2023-04-01T11:54:44.751Z,56.84
2023-04-01T11:57:35.307Z,56.76
2023-04-01T12:00:39.929Z,56.76
2023-04-01T12:03:34.061Z,56.80
2023-04-01T12:06:12.514Z,56.72
2023-04-01T12:08:53.937Z,56.57
2023-04-01T12:11:31.219Z,56.54
2023-04-01T12:14:10.284Z,56.51
2023-04-01T12:16:50.320Z,56.41
2023-04-01T12:19:30.025Z,56.43
2023-04-01T12:22:11.480Z,56.37
2023-04-01T12:24:48.693Z,56.19
2023-04-01T12:27:40.080Z,56.04
2023-04-01T12:30:33.309Z,55.80
2023-04-01T12:33:30.793Z,55.71
2023-04-01T12:36:11.474Z,55.62
2023-04-01T12:38:49.329Z,55.61
2023-04-01T12:41:31.104Z,55.60
2023-04-01T12:44:36.470Z,55.73
2023-04-01T12:47:46.435Z,55.76
2023-04-01T12:50:39.429Z,55.78
2023-04-01T12:53:34.608Z,55.83
2023-04-01T12:56:09.343Z,56.00
2023-04-01T12:59:10.120Z,56.15
2023-04-01T13:02:01.452Z,56.29
2023-04-01T13:04:55.336Z,56.59
2023-04-01T13:07:51.619Z,56.33
2023-04-01T13:10:38.351Z,56.58
2023-04-01T13:13:26.548Z,56.62
2023-04-01T13:15:59.583Z,56.68
2023-04-01T13:18:40.620Z,56.77
2023-04-01T13:21:20.035Z,56.72
2023-04-01T13:24:01.313Z,56.73
2023-04-01T13:26:38.181Z,56.73
2023-04-01T13:29:15.458Z,56.89
2023-04-01T13:32:01.556Z,56.71
2023-04-01T13:34:48.862Z,56.73
2023-04-01T13:37:43.251Z,56.85
2023-04-01T13:40:35.896Z,56.71
2023-04-01T13:43:11.262Z,56.79
2023-04-01T13:45:56.178Z,56.86
2023-04-01T13:49:00.857Z,56.71
2023-04-01T13:51:50.731Z,56.78
2023-04-01T13:54:46.910Z,56.65
2023-04-01T13:57:32.396Z,56.82
2023-04-01T14:00:34.240Z,56.65
2023-04-01T14:03:25.972Z,56.48
2023-04-01T14:06:05.421Z,56.78
2023-04-01T14:08:52.492Z,56.65
2023-04-01T14:11:33.376Z,56.94
2023-04-01T14:14:12.690Z,56.81
2023-04-01T14:17:04.430Z,57.03
2023-04-01T14:19:47.017Z,56.92
2023-04-01T14:22:26.413Z,57.09
2023-04-01T14:25:24.220Z,57.08
2023-04-01T14:28:01.233Z,57.30
2023-04-01T14:30:44.842Z,57.35
2023-04-01T14:33:31.416Z,57.39
2023-04-01T14:36:26.833Z,57.60
2023-04-01T14:39:08.848Z,57.58
2023-04-01T14:41:48.641Z,57.58
2023-04-01T14:44:44.657Z,57.74
2023-04-01T14:47:29.019Z,57.98
2023-04-01T14:50:08.091Z,58.25
2023-04-01T14:52:41.234Z,58.18
2023-04-01T14:55:34.010Z,58.21
2023-04-01T14:58:11.749Z,58.50
2023-04-01T15:01:02.901Z,58.31
2023-04-01T15:03:37.770Z,58.26
2023-04-01T15:06:49.828Z,58.45
2023-04-01T15:09:31.941Z,58.54
2023-04-01T15:12:16.519Z,58.73
2023-04-01T15:15:08.299Z,58.77
2023-04-01T15:17:58.785Z,59.09
2023-04-01T15:20:54.171Z,59.04
2023-04-01T15:23:34.465Z,59.19
2023-04-01T15:26:32.798Z,59.20
2023-04-01T15:29:24.469Z,59.22
2023-04-01T15:32:01.278Z,59.23
2023-04-01T15:34:38.194Z,59.33
2023-04-01T15:37:15.856Z,59.31
2023-04-01T15:39:56.067Z,59.33
2023-04-01T15:42:40.513Z,59.33
2023-04-01T15:45:24.398Z,59.43
2023-04-01T15:48:02.437Z,59.50
2023-04-01T15:50:56.868Z,59.54
2023-04-01T15:54:06.781Z,59.49
2023-04-01T15:56:56.726Z,59.67
2023-04-01T15:59:43.689Z,59.81
2023-04-01T16:02:22.759Z,59.95
2023-04-01T16:04:59.742Z,60.15
2023-04-01T16:07:56.458Z,60.32
2023-04-01T16:10:53.190Z,60.29
2023-04-01T16:13:34.483Z,60.08
2023-04-01T16:16:14.167Z,60.04
2023-04-01T16:19:08.575Z,60.20
2023-04-01T16:21:44.539Z,60.17
2023-04-01T16:24:23.254Z,60.19
2023-04-01T16:26:57.367Z,59.97
2023-04-01T16:29:33.929Z,59.89
2023-04-01T16:32:20.044Z,60.04
2023-04-01T16:35:04.059Z,60.16
2023-04-01T16:37:40.739Z,60.57
2023-04-01T16:40:24.122Z,60.68
2023-04-01T16:42:57.103Z,60.70
2023-04-01T16:45:34.896Z,60.57
2023-04-01T16:48:12.780Z,60.57
2023-04-01T16:50:59.433Z,60.62
2023-04-01T16:53:42.388Z,60.81
2023-04-01T16:56:16.886Z,60.73
2023-04-01T16:59:05.065Z,60.77
2023-04-01T17:01:45.781Z,60.80
2023-04-01T17:04:22.775Z,60.70
2023-04-01T17:06:58.670Z,60.80
2023-04-01T17:09:36.035Z,60.93
2023-04-01T17:12:14.210Z,60.92
2023-04-01T17:14:50.326Z,60.97
2023-04-01T17:17:44.872Z,60.93
2023-04-01T17:20:44.851Z,61.03
2023-04-01T17:23:24.273Z,61.12
2023-04-01T17:26:22.877Z,61.23
2023-04-01T17:28:58.552Z,61.02
2023-04-01T17:31:38.612Z,61.04
2023-04-01T17:34:22.433Z,61.19
2023-04-01T17:37:09.707Z,61.12
2023-04-01T17:39:50.599Z,61.33
2023-04-01T17:42:34.132Z,61.28
2023-04-01T17:45:11.618Z,61.40
2023-04-01T17:47:57.722Z,61.36
2023-04-01T17:50:37.599Z,61.73
2023-04-01T17:53:24.463Z,61.74
2023-04-01T17:56:04.154Z,61.88
2023-04-01T17:58:45.209Z,61.89
2023-04-01T18:01:27.332Z,62.06
2023-04-01T18:04:07.858Z,62.04
2023-04-01T18:06:46.340Z,62.18
2023-04-01T18:09:29.342Z,62.37
2023-04-01T18:12:07.491Z,62.36
2023-04-01T18:14:58.625Z,62.26
2023-04-01T18:17:38.416Z,62.42
2023-04-01T18:20:29.576Z,62.51
2023-04-01T18:23:04.382Z,62.60
2023-04-01T18:25:38.435Z,62.82
2023-04-01T18:28:23.406Z,62.98
2023-04-01T18:30:58.713Z,63.04
2023-04-01T18:33:37.904Z,63.01
2023-04-01T18:36:19.556Z,63.18
2023-04-01T18:38:54.214Z,63.28
2023-04-01T18:41:33.801Z,63.29
2023-04-01T18:44:19.658Z,63.26
2023-04-01T18:46:55.940Z,63.43
2023-04-01T18:49:31.402Z,63.42
2023-04-01T18:52:08.909Z,63.39
2023-04-01T18:54:46.783Z,63.39
2023-04-01T18:57:17.444Z,63.38
2023-04-01T18:59:52.493Z,63.60
2023-04-01T19:02:32.216Z,63.53
2023-04-01T19:05:10.248Z,63.67
2023-04-01T19:07:45.150Z,63.62
2023-04-01T19:10:24.391Z,63.62
2023-04-01T19:13:18.408Z,63.89
2023-04-01T19:15:53.907Z,63.80
2023-04-01T19:18:36.270Z,63.88
2023-04-01T19:21:12.574Z,63.99
2023-04-01T19:24:02.871Z,64.07
2023-04-01T19:26:40.071Z,63.88
2023-04-01T19:29:32.232Z,64.02
2023-04-01T19:32:16.038Z,64.11
2023-04-01T19:34:55.700Z,64.24
2023-04-01T19:37:34.282Z,64.32
2023-04-01T19:40:19.487Z,64.44
2023-04-01T19:42:58.710Z,64.40
2023-04-01T19:45:39.489Z,64.49
2023-04-01T19:48:22.944Z,64.63
2023-04-01T19:50:59.208Z,64.59
2023-04-01T19:53:36.155Z,64.66
2023-04-01T19:56:14.860Z,64.81
2023-04-01T19:58:50.796Z,64.91
2023-04-01T20:01:41.547Z,64.78
2023-04-01T20:04:17.239Z,64.94
2023-04-01T20:06:56.253Z,64.96
2023-04-01T20:09:53.478Z,65.15
2023-04-01T20:12:41.112Z,65.33
2023-04-01T20:15:28.298Z,65.09
2023-04-01T20:18:01.136Z,65.21
2023-04-01T20:20:32.333Z,65.30
2023-04-01T20:23:26.650Z,65.24
2023-04-01T20:26:00.206Z,65.39
2023-04-01T20:28:37.318Z,65.42
2023-04-01T20:31:25.075Z,65.35
2023-04-01T20:34:26.241Z,65.48
2023-04-01T20:37:15.573Z,65.48
2023-04-01T20:40:03.633Z,65.52
2023-04-01T20:42:49.908Z,65.52
2023-04-01T20:45:39.161Z,65.59
2023-04-01T20:48:31.880Z,65.68
2023-04-01T20:51:06.651Z,65.80
2023-04-01T20:53:43.058Z,65.59
2023-04-01T20:56:31.065Z,65.61
2023-04-01T20:59:15.697Z,65.74
2023-04-01T21:01:54.472Z,65.78
2023-04-01T21:04:35.811Z,65.82
2023-04-01T21:07:15.793Z,65.81
2023-04-01T21:10:02.570Z,66.07
2023-04-01T21:12:41.312Z,66.05
2023-04-01T21:15:32.505Z,65.89
2023-04-01T21:18:15.543Z,66.20
2023-04-01T21:21:04.612Z,66.33
2023-04-01T21:23:47.178Z,66.35
2023-04-01T21:26:34.014Z,66.18
2023-04-01T21:29:27.427Z,66.22
2023-04-01T21:32:12.922Z,66.31
2023-04-01T21:34:50.728Z,66.50
2023-04-01T21:37:51.575Z,66.34
2023-04-01T21:40:51.990Z,66.52
2023-04-01T21:43:34.225Z,66.52
2023-04-01T21:46:35.003Z,66.53
2023-04-01T21:49:29.113Z,66.61
2023-04-01T21:52:33.601Z,66.45
2023-04-01T21:55:27.526Z,66.59
2023-04-01T21:58:31.305Z,66.68
2023-04-01T22:01:15.089Z,66.66
2023-04-01T22:04:18.260Z,66.69
2023-04-01T22:06:54.435Z,66.79
2023-04-01T22:09:30.502Z,66.84
2023-04-01T22:12:05.251Z,66.84
2023-04-01T22:14:45.206Z,66.95
2023-04-01T22:17:24.572Z,66.97
2023-04-01T22:20:09.700Z,67.12
2023-04-01T22:22:57.433Z,67.08
2023-04-01T22:25:31.146Z,67.20
2023-04-01T22:28:07.596Z,67.27
2023-04-01T22:30:42.762Z,67.27
2023-04-01T22:33:19.081Z,67.42
2023-04-01T22:35:54.264Z,67.55
2023-04-01T22:38:41.367Z,67.58
2023-04-01T22:41:21.340Z,67.73
2023-04-01T22:43:52.190Z,68.00
2023-04-01T22:46:45.697Z,67.96
2023-04-01T22:49:22.929Z,67.96
2023-04-01T22:51:58.075Z,68.46
2023-04-01T22:54:33.196Z,68.36
2023-04-01T22:57:05.962Z,68.06
2023-04-01T22:59:42.976Z,68.15
2023-04-01T23:02:15.883Z,68.19
2023-04-01T23:04:49.943Z,68.36
2023-04-01T23:07:37.507Z,68.52
2023-04-01T23:10:16.367Z,68.41
2023-04-01T23:12:47.598Z,68.40
2023-04-01T23:15:17.731Z,68.45
2023-04-01T23:18:20.619Z,68.50
2023-04-01T23:21:11.385Z,68.28
2023-04-01T23:23:56.562Z,68.40
2023-04-01T23:26:33.010Z,68.54
2023-04-01T23:29:04.110Z,68.35
2023-04-01T23:31:39.400Z,68.45
2023-04-01T23:34:25.369Z,68.47
2023-04-01T23:36:57.418Z,68.48
2023-04-01T23:39:30.733Z,68.63
2023-04-01T23:42:04.792Z,68.66
2023-04-01T23:44:36.335Z,68.51
2023-04-01T23:47:07.333Z,68.70
2023-04-01T23:49:41.298Z,68.67
2023-04-01T23:52:18.193Z,68.64
2023-04-01T23:54:53.080Z,68.59
2023-04-01T23:57:25.315Z,68.61
